sensor_id;sensor_type;location;lat;lon;timestamp;temperature;humidity
7998;DHT22;4044;49.814;7.828;2022-07-01T00:01:57;15.10;99.90
7998;DHT22;4044;49.814;7.828;2022-07-01T00:04:22;15.20;99.90
7998;DHT22;4044;49.814;7.828;2022-07-01T00:06:52;15.20;99.90
7998;DHT22;4044;49.814;7.828;2022-07-01T00:09:18;15.20;99.90
7998;DHT22;4044;49.814;7.828;2022-07-01T00:11:44;15.20;99.90
7998;DHT22;4044;49.814;7.828;2022-07-01T00:14:09;15.30;99.90
7998;DHT22;4044;49.814;7.828;2022-07-01T00:16:35;15.30;99.90
7998;DHT22;4044;49.814;7.828;2022-07-01T00:19:02;15.30;99.90
7998;DHT22;4044;49.814;7.828;2022-07-01T00:21:27;15.30;99.90
7998;DHT22;4044;49.814;7.828;2022-07-01T00:23:53;15.20;99.90
7998;DHT22;4044;49.814;7.828;2022-07-01T00:26:18;15.20;99.90
7998;DHT22;4044;49.814;7.828;2022-07-01T00:28:44;15.20;99.90
7998;DHT22;4044;49.814;7.828;2022-07-01T00:31:09;15.20;99.90
7998;DHT22;4044;49.814;7.828;2022-07-01T00:33:35;15.10;99.90
7998;DHT22;4044;49.814;7.828;2022-07-01T00:36:00;15.20;99.90
7998;DHT22;4044;49.814;7.828;2022-07-01T00:38:26;15.30;99.90
7998;DHT22;4044;49.814;7.828;2022-07-01T00:40:55;15.30;99.90
7998;DHT22;4044;49.814;7.828;2022-07-01T00:43:21;15.40;99.90
7998;DHT22;4044;49.814;7.828;2022-07-01T00:45:50;15.40;99.90
7998;DHT22;4044;49.814;7.828;2022-07-01T00:48:16;15.40;99.90
7998;DHT22;4044;49.814;7.828;2022-07-01T00:50:44;15.50;99.90
7998;DHT22;4044;49.814;7.828;2022-07-01T00:53:09;15.50;99.90
7998;DHT22;4044;49.814;7.828;2022-07-01T00:55:35;15.50;99.90
7998;DHT22;4044;49.814;7.828;2022-07-01T00:58:01;15.50;99.90
7998;DHT22;4044;49.814;7.828;2022-07-01T01:00:26;15.40;99.90
7998;DHT22;4044;49.814;7.828;2022-07-01T01:02:52;15.40;99.90
7998;DHT22;4044;49.814;7.828;2022-07-01T01:05:18;15.40;99.90
7998;DHT22;4044;49.814;7.828;2022-07-01T01:07:46;15.40;99.90
7998;DHT22;4044;49.814;7.828;2022-07-01T01:10:13;15.40;99.90
7998;DHT22;4044;49.814;7.828;2022-07-01T01:12:40;15.50;99.90
7998;DHT22;4044;49.814;7.828;2022-07-01T01:15:06;15.40;99.90
7998;DHT22;4044;49.814;7.828;2022-07-01T01:17:32;15.40;99.90
7998;DHT22;4044;49.814;7.828;2022-07-01T01:19:57;15.50;99.90
7998;DHT22;4044;49.814;7.828;2022-07-01T01:22:23;15.60;99.90
7998;DHT22;4044;49.814;7.828;2022-07-01T01:24:49;15.60;99.90
7998;DHT22;4044;49.814;7.828;2022-07-01T01:27:14;15.60;99.90
7998;DHT22;4044;49.814;7.828;2022-07-01T01:29:42;15.60;99.90
7998;DHT22;4044;49.814;7.828;2022-07-01T01:32:08;15.60;99.90
7998;DHT22;4044;49.814;7.828;2022-07-01T01:34:35;15.70;99.90
7998;DHT22;4044;49.814;7.828;2022-07-01T01:37:02;15.70;99.90
7998;DHT22;4044;49.814;7.828;2022-07-01T01:39:28;15.60;99.90
7998;DHT22;4044;49.814;7.828;2022-07-01T01:41:54;15.60;99.90
7998;DHT22;4044;49.814;7.828;2022-07-01T01:44:19;15.70;99.90
7998;DHT22;4044;49.814;7.828;2022-07-01T01:46:45;15.70;99.90
7998;DHT22;4044;49.814;7.828;2022-07-01T01:49:11;15.70;99.90
7998;DHT22;4044;49.814;7.828;2022-07-01T01:51:37;15.80;99.90
7998;DHT22;4044;49.814;7.828;2022-07-01T01:54:02;15.70;99.90
7998;DHT22;4044;49.814;7.828;2022-07-01T01:56:28;15.70;99.90
7998;DHT22;4044;49.814;7.828;2022-07-01T01:58:55;15.60;99.90
7998;DHT22;4044;49.814;7.828;2022-07-01T02:01:21;15.50;99.90
7998;DHT22;4044;49.814;7.828;2022-07-01T02:03:48;15.50;99.90
7998;DHT22;4044;49.814;7.828;2022-07-01T02:06:15;15.40;99.90
7998;DHT22;4044;49.814;7.828;2022-07-01T02:08:41;15.30;99.90
7998;DHT22;4044;49.814;7.828;2022-07-01T02:11:07;15.30;99.90
7998;DHT22;4044;49.814;7.828;2022-07-01T02:13:33;15.30;99.90
7998;DHT22;4044;49.814;7.828;2022-07-01T02:15:59;15.20;99.90
7998;DHT22;4044;49.814;7.828;2022-07-01T02:18:24;15.20;99.90
7998;DHT22;4044;49.814;7.828;2022-07-01T02:20:50;15.10;99.90
7998;DHT22;4044;49.814;7.828;2022-07-01T02:23:16;15.10;99.90
7998;DHT22;4044;49.814;7.828;2022-07-01T02:25:42;15.10;99.90
7998;DHT22;4044;49.814;7.828;2022-07-01T02:28:08;15.10;99.90
7998;DHT22;4044;49.814;7.828;2022-07-01T02:30:34;15.00;99.90
7998;DHT22;4044;49.814;7.828;2022-07-01T02:33:04;15.00;99.90
7998;DHT22;4044;49.814;7.828;2022-07-01T02:35:31;15.00;99.90
7998;DHT22;4044;49.814;7.828;2022-07-01T02:37:57;15.00;99.90
7998;DHT22;4044;49.814;7.828;2022-07-01T02:40:22;15.00;99.90
7998;DHT22;4044;49.814;7.828;2022-07-01T02:42:48;15.00;99.90
7998;DHT22;4044;49.814;7.828;2022-07-01T02:45:13;15.00;99.90
7998;DHT22;4044;49.814;7.828;2022-07-01T02:47:40;15.00;99.90
7998;DHT22;4044;49.814;7.828;2022-07-01T02:50:08;15.00;99.90
7998;DHT22;4044;49.814;7.828;2022-07-01T02:52:35;15.00;99.90
7998;DHT22;4044;49.814;7.828;2022-07-01T02:55:02;15.00;99.90
7998;DHT22;4044;49.814;7.828;2022-07-01T02:57:28;15.00;99.90
7998;DHT22;4044;49.814;7.828;2022-07-01T02:59:54;15.00;99.90
7998;DHT22;4044;49.814;7.828;2022-07-01T03:02:20;15.00;99.90
7998;DHT22;4044;49.814;7.828;2022-07-01T03:04:47;15.00;99.90
7998;DHT22;4044;49.814;7.828;2022-07-01T03:07:13;15.10;99.90
7998;DHT22;4044;49.814;7.828;2022-07-01T03:09:39;15.00;99.90
7998;DHT22;4044;49.814;7.828;2022-07-01T03:12:11;15.00;99.90
7998;DHT22;4044;49.814;7.828;2022-07-01T03:17:19;15.00;99.90
7998;DHT22;4044;49.814;7.828;2022-07-01T03:19:45;15.10;99.90
7998;DHT22;4044;49.814;7.828;2022-07-01T03:22:11;15.10;99.90
7998;DHT22;4044;49.814;7.828;2022-07-01T03:24:36;15.10;99.90
7998;DHT22;4044;49.814;7.828;2022-07-01T03:27:02;15.00;99.90
7998;DHT22;4044;49.814;7.828;2022-07-01T03:29:28;14.90;99.90
7998;DHT22;4044;49.814;7.828;2022-07-01T03:31:53;14.90;99.90
7998;DHT22;4044;49.814;7.828;2022-07-01T03:34:19;14.90;99.90
7998;DHT22;4044;49.814;7.828;2022-07-01T03:36:44;14.90;99.90
7998;DHT22;4044;49.814;7.828;2022-07-01T03:39:10;14.90;99.90
7998;DHT22;4044;49.814;7.828;2022-07-01T03:41:35;14.80;99.90
7998;DHT22;4044;49.814;7.828;2022-07-01T03:44:01;14.80;99.90
7998;DHT22;4044;49.814;7.828;2022-07-01T03:46:26;14.80;99.90
7998;DHT22;4044;49.814;7.828;2022-07-01T03:48:56;14.80;99.90
7998;DHT22;4044;49.814;7.828;2022-07-01T03:51:22;14.80;99.90
7998;DHT22;4044;49.814;7.828;2022-07-01T03:53:47;14.80;99.90
7998;DHT22;4044;49.814;7.828;2022-07-01T03:56:31;14.90;99.90
7998;DHT22;4044;49.814;7.828;2022-07-01T03:58:57;15.00;99.90
7998;DHT22;4044;49.814;7.828;2022-07-01T04:01:23;14.90;99.90
7998;DHT22;4044;49.814;7.828;2022-07-01T04:03:48;14.90;99.90
7998;DHT22;4044;49.814;7.828;2022-07-01T04:06:14;14.90;99.90
7998;DHT22;4044;49.814;7.828;2022-07-01T04:08:39;14.80;99.90
7998;DHT22;4044;49.814;7.828;2022-07-01T04:11:05;14.80;99.90
7998;DHT22;4044;49.814;7.828;2022-07-01T04:13:34;14.80;99.90
7998;DHT22;4044;49.814;7.828;2022-07-01T04:15:59;14.80;99.90
7998;DHT22;4044;49.814;7.828;2022-07-01T04:18:26;14.90;99.90
7998;DHT22;4044;49.814;7.828;2022-07-01T04:20:52;15.00;99.90
7998;DHT22;4044;49.814;7.828;2022-07-01T04:23:36;15.10;99.90
7998;DHT22;4044;49.814;7.828;2022-07-01T04:26:02;15.20;99.90
7998;DHT22;4044;49.814;7.828;2022-07-01T04:28:28;15.20;99.90
7998;DHT22;4044;49.814;7.828;2022-07-01T04:30:53;15.30;99.90
7998;DHT22;4044;49.814;7.828;2022-07-01T04:33:19;15.30;99.90
7998;DHT22;4044;49.814;7.828;2022-07-01T04:35:44;15.30;99.90
7998;DHT22;4044;49.814;7.828;2022-07-01T04:38:10;15.30;99.90
7998;DHT22;4044;49.814;7.828;2022-07-01T04:40:35;15.20;99.90
7998;DHT22;4044;49.814;7.828;2022-07-01T04:43:01;15.20;99.90
7998;DHT22;4044;49.814;7.828;2022-07-01T04:45:26;15.20;99.90
7998;DHT22;4044;49.814;7.828;2022-07-01T04:47:52;15.40;99.90
7998;DHT22;4044;49.814;7.828;2022-07-01T04:50:17;15.30;99.90
7998;DHT22;4044;49.814;7.828;2022-07-01T04:52:43;15.40;99.90
7998;DHT22;4044;49.814;7.828;2022-07-01T04:55:08;15.50;99.90
7998;DHT22;4044;49.814;7.828;2022-07-01T04:57:34;15.60;99.90
7998;DHT22;4044;49.814;7.828;2022-07-01T04:59:59;15.60;99.90
7998;DHT22;4044;49.814;7.828;2022-07-01T05:02:25;15.70;99.90
7998;DHT22;4044;49.814;7.828;2022-07-01T05:04:50;15.80;99.90
7998;DHT22;4044;49.814;7.828;2022-07-01T05:07:16;15.80;99.90
7998;DHT22;4044;49.814;7.828;2022-07-01T05:09:55;15.80;99.90
7998;DHT22;4044;49.814;7.828;2022-07-01T05:12:21;15.90;99.90
7998;DHT22;4044;49.814;7.828;2022-07-01T05:14:48;16.00;99.90
7998;DHT22;4044;49.814;7.828;2022-07-01T05:17:13;16.10;99.90
7998;DHT22;4044;49.814;7.828;2022-07-01T05:19:39;16.00;99.90
7998;DHT22;4044;49.814;7.828;2022-07-01T05:22:23;16.10;99.90
7998;DHT22;4044;49.814;7.828;2022-07-01T05:24:49;16.10;99.90
7998;DHT22;4044;49.814;7.828;2022-07-01T05:27:14;16.20;99.90
7998;DHT22;4044;49.814;7.828;2022-07-01T05:29:40;16.20;99.90
7998;DHT22;4044;49.814;7.828;2022-07-01T05:32:05;16.30;99.90
7998;DHT22;4044;49.814;7.828;2022-07-01T05:34:31;16.50;99.90
7998;DHT22;4044;49.814;7.828;2022-07-01T05:36:57;16.60;99.90
7998;DHT22;4044;49.814;7.828;2022-07-01T05:39:22;16.70;99.90
7998;DHT22;4044;49.814;7.828;2022-07-01T05:41:48;16.70;99.90
7998;DHT22;4044;49.814;7.828;2022-07-01T05:44:13;16.60;99.90
7998;DHT22;4044;49.814;7.828;2022-07-01T05:46:39;16.70;99.90
7998;DHT22;4044;49.814;7.828;2022-07-01T05:49:05;16.60;99.90
7998;DHT22;4044;49.814;7.828;2022-07-01T05:51:31;16.60;99.90
7998;DHT22;4044;49.814;7.828;2022-07-01T05:53:56;16.60;99.90
7998;DHT22;4044;49.814;7.828;2022-07-01T05:56:22;16.70;99.90
7998;DHT22;4044;49.814;7.828;2022-07-01T05:58:48;16.70;99.90
7998;DHT22;4044;49.814;7.828;2022-07-01T06:01:14;16.90;99.90
7998;DHT22;4044;49.814;7.828;2022-07-01T06:03:39;17.00;99.90
7998;DHT22;4044;49.814;7.828;2022-07-01T06:06:05;17.00;99.90
7998;DHT22;4044;49.814;7.828;2022-07-01T06:08:30;16.90;99.90
7998;DHT22;4044;49.814;7.828;2022-07-01T06:10:56;17.10;99.90
7998;DHT22;4044;49.814;7.828;2022-07-01T06:13:22;17.00;99.90
7998;DHT22;4044;49.814;7.828;2022-07-01T06:15:47;17.00;99.90
7998;DHT22;4044;49.814;7.828;2022-07-01T06:18:13;17.20;99.90
7998;DHT22;4044;49.814;7.828;2022-07-01T06:20:38;17.30;99.90
7998;DHT22;4044;49.814;7.828;2022-07-01T06:23:04;17.30;99.90
7998;DHT22;4044;49.814;7.828;2022-07-01T06:25:29;17.10;99.90
7998;DHT22;4044;49.814;7.828;2022-07-01T06:27:55;17.10;99.90
7998;DHT22;4044;49.814;7.828;2022-07-01T06:30:20;17.00;99.90
7998;DHT22;4044;49.814;7.828;2022-07-01T06:32:46;16.80;99.90
7998;DHT22;4044;49.814;7.828;2022-07-01T06:35:11;16.70;99.90
7998;DHT22;4044;49.814;7.828;2022-07-01T06:37:38;16.80;99.90
7998;DHT22;4044;49.814;7.828;2022-07-01T06:40:04;16.90;99.90
7998;DHT22;4044;49.814;7.828;2022-07-01T06:42:31;16.90;99.90
7998;DHT22;4044;49.814;7.828;2022-07-01T06:44:57;17.00;99.90
7998;DHT22;4044;49.814;7.828;2022-07-01T06:47:23;17.10;99.90
7998;DHT22;4044;49.814;7.828;2022-07-01T06:49:48;17.10;99.90
7998;DHT22;4044;49.814;7.828;2022-07-01T06:52:14;17.00;99.90
7998;DHT22;4044;49.814;7.828;2022-07-01T06:54:39;17.10;99.90
7998;DHT22;4044;49.814;7.828;2022-07-01T06:57:06;17.00;99.90
7998;DHT22;4044;49.814;7.828;2022-07-01T06:59:31;17.00;99.90
7998;DHT22;4044;49.814;7.828;2022-07-01T07:01:57;17.20;99.90
7998;DHT22;4044;49.814;7.828;2022-07-01T07:04:23;17.40;99.90
7998;DHT22;4044;49.814;7.828;2022-07-01T07:06:48;17.40;99.90
7998;DHT22;4044;49.814;7.828;2022-07-01T07:09:14;17.40;99.90
7998;DHT22;4044;49.814;7.828;2022-07-01T07:11:39;17.50;99.90
7998;DHT22;4044;49.814;7.828;2022-07-01T07:14:05;17.70;99.90
7998;DHT22;4044;49.814;7.828;2022-07-01T07:16:30;17.70;99.90
7998;DHT22;4044;49.814;7.828;2022-07-01T07:18:56;17.70;99.90
7998;DHT22;4044;49.814;7.828;2022-07-01T07:21:21;17.80;99.90
7998;DHT22;4044;49.814;7.828;2022-07-01T07:23:47;17.70;99.90
7998;DHT22;4044;49.814;7.828;2022-07-01T07:26:12;17.70;99.90
7998;DHT22;4044;49.814;7.828;2022-07-01T07:28:38;17.70;99.90
7998;DHT22;4044;49.814;7.828;2022-07-01T07:31:04;17.70;99.90
7998;DHT22;4044;49.814;7.828;2022-07-01T07:33:29;17.70;99.90
7998;DHT22;4044;49.814;7.828;2022-07-01T07:35:55;17.60;99.90
7998;DHT22;4044;49.814;7.828;2022-07-01T07:38:21;17.60;99.90
7998;DHT22;4044;49.814;7.828;2022-07-01T07:40:46;17.70;99.90
7998;DHT22;4044;49.814;7.828;2022-07-01T07:43:12;17.60;99.90
7998;DHT22;4044;49.814;7.828;2022-07-01T07:45:38;17.90;99.90
7998;DHT22;4044;49.814;7.828;2022-07-01T07:48:03;18.00;99.90
7998;DHT22;4044;49.814;7.828;2022-07-01T07:50:31;18.30;99.90
7998;DHT22;4044;49.814;7.828;2022-07-01T07:52:56;18.50;99.90
7998;DHT22;4044;49.814;7.828;2022-07-01T07:55:22;18.70;99.90
7998;DHT22;4044;49.814;7.828;2022-07-01T07:57:48;18.90;99.90
7998;DHT22;4044;49.814;7.828;2022-07-01T08:00:13;18.90;99.90
7998;DHT22;4044;49.814;7.828;2022-07-01T08:02:40;19.00;99.90
7998;DHT22;4044;49.814;7.828;2022-07-01T08:05:07;19.00;99.90
7998;DHT22;4044;49.814;7.828;2022-07-01T08:07:40;19.20;99.90
7998;DHT22;4044;49.814;7.828;2022-07-01T08:10:08;19.60;99.90
7998;DHT22;4044;49.814;7.828;2022-07-01T08:12:34;19.60;99.90
7998;DHT22;4044;49.814;7.828;2022-07-01T08:15:00;19.70;99.60
7998;DHT22;4044;49.814;7.828;2022-07-01T08:17:26;19.80;99.50
7998;DHT22;4044;49.814;7.828;2022-07-01T08:19:52;19.80;98.10
7998;DHT22;4044;49.814;7.828;2022-07-01T08:22:17;19.50;97.70
7998;DHT22;4044;49.814;7.828;2022-07-01T08:24:43;19.50;98.30
7998;DHT22;4044;49.814;7.828;2022-07-01T08:27:08;19.30;97.70
7998;DHT22;4044;49.814;7.828;2022-07-01T08:29:34;19.40;97.60
7998;DHT22;4044;49.814;7.828;2022-07-01T08:31:59;19.20;97.90
7998;DHT22;4044;49.814;7.828;2022-07-01T08:34:25;19.30;96.40
7998;DHT22;4044;49.814;7.828;2022-07-01T08:36:51;19.60;97.70
7998;DHT22;4044;49.814;7.828;2022-07-01T08:39:16;19.70;96.80
7998;DHT22;4044;49.814;7.828;2022-07-01T08:41:42;20.00;96.60
7998;DHT22;4044;49.814;7.828;2022-07-01T08:44:08;20.00;96.40
7998;DHT22;4044;49.814;7.828;2022-07-01T08:46:34;20.00;95.50
7998;DHT22;4044;49.814;7.828;2022-07-01T08:49:00;20.30;94.40
7998;DHT22;4044;49.814;7.828;2022-07-01T08:51:26;20.60;94.90
7998;DHT22;4044;49.814;7.828;2022-07-01T08:53:52;21.10;95.10
7998;DHT22;4044;49.814;7.828;2022-07-01T08:56:17;21.30;92.70
7998;DHT22;4044;49.814;7.828;2022-07-01T08:59:02;21.00;93.00
7998;DHT22;4044;49.814;7.828;2022-07-01T09:01:27;21.10;91.40
7998;DHT22;4044;49.814;7.828;2022-07-01T09:03:55;21.10;92.20
7998;DHT22;4044;49.814;7.828;2022-07-01T09:06:23;21.10;91.60
7998;DHT22;4044;49.814;7.828;2022-07-01T09:08:49;21.00;91.80
7998;DHT22;4044;49.814;7.828;2022-07-01T09:11:20;21.00;91.10
7998;DHT22;4044;49.814;7.828;2022-07-01T09:14:05;20.80;91.60
7998;DHT22;4044;49.814;7.828;2022-07-01T09:16:46;20.70;92.00
7998;DHT22;4044;49.814;7.828;2022-07-01T09:19:13;20.80;92.00
7998;DHT22;4044;49.814;7.828;2022-07-01T09:21:39;20.60;91.40
7998;DHT22;4044;49.814;7.828;2022-07-01T09:29:19;20.80;90.80
7998;DHT22;4044;49.814;7.828;2022-07-01T09:31:48;21.10;91.10
7998;DHT22;4044;49.814;7.828;2022-07-01T09:34:15;21.30;87.00
7998;DHT22;4044;49.814;7.828;2022-07-01T09:36:40;21.80;87.70
7998;DHT22;4044;49.814;7.828;2022-07-01T09:39:06;22.30;83.80
7998;DHT22;4044;49.814;7.828;2022-07-01T09:41:38;22.70;86.80
7998;DHT22;4044;49.814;7.828;2022-07-01T09:44:08;23.00;84.40
7998;DHT22;4044;49.814;7.828;2022-07-01T09:46:34;23.00;82.80
7998;DHT22;4044;49.814;7.828;2022-07-01T09:48:59;22.90;81.20
7998;DHT22;4044;49.814;7.828;2022-07-01T09:51:26;22.90;78.70
7998;DHT22;4044;49.814;7.828;2022-07-01T09:53:51;23.10;79.10
7998;DHT22;4044;49.814;7.828;2022-07-01T09:56:18;23.00;81.80
7998;DHT22;4044;49.814;7.828;2022-07-01T09:58:44;23.10;79.90
7998;DHT22;4044;49.814;7.828;2022-07-01T10:01:10;23.40;77.60
7998;DHT22;4044;49.814;7.828;2022-07-01T10:03:37;23.30;78.70
7998;DHT22;4044;49.814;7.828;2022-07-01T10:09:38;23.50;79.90
7998;DHT22;4044;49.814;7.828;2022-07-01T10:12:42;23.70;77.50
7998;DHT22;4044;49.814;7.828;2022-07-01T10:15:10;23.60;74.40
7998;DHT22;4044;49.814;7.828;2022-07-01T10:17:42;23.60;75.50
7998;DHT22;4044;49.814;7.828;2022-07-01T10:20:20;23.50;78.00
7998;DHT22;4044;49.814;7.828;2022-07-01T10:22:48;23.60;74.60
7998;DHT22;4044;49.814;7.828;2022-07-01T10:25:34;23.70;76.10
7998;DHT22;4044;49.814;7.828;2022-07-01T10:28:19;24.00;75.10
7998;DHT22;4044;49.814;7.828;2022-07-01T10:36:24;23.60;71.20
7998;DHT22;4044;49.814;7.828;2022-07-01T10:44:19;23.40;74.10
7998;DHT22;4044;49.814;7.828;2022-07-01T10:59:50;24.50;67.00
7998;DHT22;4044;49.814;7.828;2022-07-01T11:04:42;23.80;71.00
7998;DHT22;4044;49.814;7.828;2022-07-01T11:07:09;23.30;71.00
7998;DHT22;4044;49.814;7.828;2022-07-01T11:09:34;23.20;71.50
7998;DHT22;4044;49.814;7.828;2022-07-01T11:12:01;23.20;71.30
7998;DHT22;4044;49.814;7.828;2022-07-01T11:14:27;23.20;70.90
7998;DHT22;4044;49.814;7.828;2022-07-01T11:16:54;23.40;70.90
7998;DHT22;4044;49.814;7.828;2022-07-01T11:19:20;23.40;68.50
7998;DHT22;4044;49.814;7.828;2022-07-01T11:21:50;23.30;71.60
7998;DHT22;4044;49.814;7.828;2022-07-01T11:24:19;23.60;70.00
7998;DHT22;4044;49.814;7.828;2022-07-01T11:26:45;23.80;71.90
7998;DHT22;4044;49.814;7.828;2022-07-01T11:29:11;23.80;69.40
7998;DHT22;4044;49.814;7.828;2022-07-01T11:31:38;23.70;69.30
7998;DHT22;4044;49.814;7.828;2022-07-01T11:34:06;23.90;67.40
7998;DHT22;4044;49.814;7.828;2022-07-01T11:36:32;24.40;67.30
7998;DHT22;4044;49.814;7.828;2022-07-01T11:39:18;25.10;69.20
7998;DHT22;4044;49.814;7.828;2022-07-01T11:41:55;26.00;66.60
7998;DHT22;4044;49.814;7.828;2022-07-01T11:44:49;26.10;62.60
7998;DHT22;4044;49.814;7.828;2022-07-01T11:47:25;26.10;60.50
7998;DHT22;4044;49.814;7.828;2022-07-01T11:49:51;25.90;61.30
7998;DHT22;4044;49.814;7.828;2022-07-01T11:52:18;25.60;61.70
7998;DHT22;4044;49.814;7.828;2022-07-01T11:54:46;25.50;63.60
7998;DHT22;4044;49.814;7.828;2022-07-01T11:57:13;25.50;63.30
7998;DHT22;4044;49.814;7.828;2022-07-01T11:59:39;25.20;61.30
7998;DHT22;4044;49.814;7.828;2022-07-01T12:02:06;24.80;64.70
7998;DHT22;4044;49.814;7.828;2022-07-01T12:04:32;24.80;66.10
7998;DHT22;4044;49.814;7.828;2022-07-01T12:06:59;24.60;66.50
7998;DHT22;4044;49.814;7.828;2022-07-01T12:09:25;24.20;67.80
7998;DHT22;4044;49.814;7.828;2022-07-01T12:11:51;23.20;72.00
7998;DHT22;4044;49.814;7.828;2022-07-01T12:14:21;21.80;74.30
7998;DHT22;4044;49.814;7.828;2022-07-01T12:16:51;20.50;82.30
7998;DHT22;4044;49.814;7.828;2022-07-01T12:19:18;19.50;90.80
7998;DHT22;4044;49.814;7.828;2022-07-01T12:21:52;18.30;96.70
7998;DHT22;4044;49.814;7.828;2022-07-01T12:24:19;17.80;99.90
7998;DHT22;4044;49.814;7.828;2022-07-01T12:26:49;18.00;99.90
7998;DHT22;4044;49.814;7.828;2022-07-01T12:29:16;18.40;99.90
7998;DHT22;4044;49.814;7.828;2022-07-01T12:31:42;18.60;99.90
7998;DHT22;4044;49.814;7.828;2022-07-01T12:34:08;19.10;99.90
7998;DHT22;4044;49.814;7.828;2022-07-01T12:36:34;19.70;99.90
7998;DHT22;4044;49.814;7.828;2022-07-01T12:39:06;20.60;99.90
7998;DHT22;4044;49.814;7.828;2022-07-01T12:41:33;21.30;99.90
7998;DHT22;4044;49.814;7.828;2022-07-01T12:44:20;22.10;99.90
7998;DHT22;4044;49.814;7.828;2022-07-01T12:46:46;24.00;97.40
7998;DHT22;4044;49.814;7.828;2022-07-01T12:49:22;25.60;94.00
7998;DHT22;4044;49.814;7.828;2022-07-01T12:51:48;27.50;90.60
7998;DHT22;4044;49.814;7.828;2022-07-01T12:54:33;28.40;82.90
7998;DHT22;4044;49.814;7.828;2022-07-01T12:57:00;30.00;79.90
7998;DHT22;4044;49.814;7.828;2022-07-01T12:59:26;30.80;73.80
7998;DHT22;4044;49.814;7.828;2022-07-01T13:01:52;31.10;70.80
7998;DHT22;4044;49.814;7.828;2022-07-01T13:04:24;32.20;64.50
7998;DHT22;4044;49.814;7.828;2022-07-01T13:06:50;33.20;61.30
7998;DHT22;4044;49.814;7.828;2022-07-01T13:09:16;33.50;60.70
7998;DHT22;4044;49.814;7.828;2022-07-01T13:11:41;32.50;58.10
7998;DHT22;4044;49.814;7.828;2022-07-01T13:14:07;30.60;56.70
7998;DHT22;4044;49.814;7.828;2022-07-01T13:16:32;29.10;59.00
7998;DHT22;4044;49.814;7.828;2022-07-01T13:18:58;28.10;60.60
7998;DHT22;4044;49.814;7.828;2022-07-01T13:21:23;27.50;65.50
7998;DHT22;4044;49.814;7.828;2022-07-01T13:23:49;27.00;65.00
7998;DHT22;4044;49.814;7.828;2022-07-01T13:26:14;26.60;68.60
7998;DHT22;4044;49.814;7.828;2022-07-01T13:28:40;26.20;68.20
7998;DHT22;4044;49.814;7.828;2022-07-01T13:31:05;25.80;64.60
7998;DHT22;4044;49.814;7.828;2022-07-01T13:33:31;25.50;68.50
7998;DHT22;4044;49.814;7.828;2022-07-01T13:35:56;25.50;70.20
7998;DHT22;4044;49.814;7.828;2022-07-01T13:38:23;25.50;68.40
7998;DHT22;4044;49.814;7.828;2022-07-01T13:40:49;25.30;66.30
7998;DHT22;4044;49.814;7.828;2022-07-01T13:43:14;25.30;66.20
7998;DHT22;4044;49.814;7.828;2022-07-01T13:45:42;25.50;68.90
7998;DHT22;4044;49.814;7.828;2022-07-01T13:48:07;25.80;67.30
7998;DHT22;4044;49.814;7.828;2022-07-01T13:50:33;27.50;59.10
7998;DHT22;4044;49.814;7.828;2022-07-01T13:53:00;30.10;59.30
7998;DHT22;4044;49.814;7.828;2022-07-01T13:55:25;32.10;57.80
7998;DHT22;4044;49.814;7.828;2022-07-01T13:57:51;32.80;53.20
7998;DHT22;4044;49.814;7.828;2022-07-01T14:00:17;32.30;49.30
7998;DHT22;4044;49.814;7.828;2022-07-01T14:02:43;33.80;53.30
7998;DHT22;4044;49.814;7.828;2022-07-01T14:05:09;35.30;48.40
7998;DHT22;4044;49.814;7.828;2022-07-01T14:07:35;36.40;46.70
7998;DHT22;4044;49.814;7.828;2022-07-01T14:10:01;36.50;45.50
7998;DHT22;4044;49.814;7.828;2022-07-01T14:12:27;37.20;45.90
7998;DHT22;4044;49.814;7.828;2022-07-01T14:14:54;37.30;43.30
7998;DHT22;4044;49.814;7.828;2022-07-01T14:17:19;36.70;45.30
7998;DHT22;4044;49.814;7.828;2022-07-01T14:19:45;35.80;45.00
7998;DHT22;4044;49.814;7.828;2022-07-01T14:22:10;35.60;46.70
7998;DHT22;4044;49.814;7.828;2022-07-01T14:24:36;37.20;44.60
7998;DHT22;4044;49.814;7.828;2022-07-01T14:27:02;37.30;41.90
7998;DHT22;4044;49.814;7.828;2022-07-01T14:29:28;36.40;41.80
7998;DHT22;4044;49.814;7.828;2022-07-01T14:31:53;35.50;44.20
7998;DHT22;4044;49.814;7.828;2022-07-01T14:34:19;33.60;43.20
7998;DHT22;4044;49.814;7.828;2022-07-01T14:36:45;32.70;47.10
7998;DHT22;4044;49.814;7.828;2022-07-01T14:39:11;31.70;47.80
7998;DHT22;4044;49.814;7.828;2022-07-01T14:41:36;31.40;50.90
7998;DHT22;4044;49.814;7.828;2022-07-01T14:44:02;30.90;47.70
7998;DHT22;4044;49.814;7.828;2022-07-01T14:46:27;30.40;50.70
7998;DHT22;4044;49.814;7.828;2022-07-01T14:48:53;30.40;50.40
7998;DHT22;4044;49.814;7.828;2022-07-01T14:51:19;32.50;46.40
7998;DHT22;4044;49.814;7.828;2022-07-01T14:53:44;34.20;44.60
7998;DHT22;4044;49.814;7.828;2022-07-01T14:56:10;35.80;40.70
7998;DHT22;4044;49.814;7.828;2022-07-01T14:58:35;36.00;41.70
7998;DHT22;4044;49.814;7.828;2022-07-01T15:01:01;36.50;41.40
7998;DHT22;4044;49.814;7.828;2022-07-01T15:03:27;34.90;42.70
7998;DHT22;4044;49.814;7.828;2022-07-01T15:05:53;32.50;40.40
7998;DHT22;4044;49.814;7.828;2022-07-01T15:08:19;31.60;45.00
7998;DHT22;4044;49.814;7.828;2022-07-01T15:10:44;30.60;45.10
7998;DHT22;4044;49.814;7.828;2022-07-01T15:13:11;30.20;45.90
7998;DHT22;4044;49.814;7.828;2022-07-01T15:15:38;30.10;49.80
7998;DHT22;4044;49.814;7.828;2022-07-01T15:18:03;30.40;48.60
7998;DHT22;4044;49.814;7.828;2022-07-01T15:20:29;30.40;51.00
7998;DHT22;4044;49.814;7.828;2022-07-01T15:22:55;30.00;50.30
7998;DHT22;4044;49.814;7.828;2022-07-01T15:25:20;29.40;47.10
7998;DHT22;4044;49.814;7.828;2022-07-01T15:27:46;28.70;48.90
7998;DHT22;4044;49.814;7.828;2022-07-01T15:30:11;28.70;52.00
7998;DHT22;4044;49.814;7.828;2022-07-01T15:32:37;28.40;48.90
7998;DHT22;4044;49.814;7.828;2022-07-01T15:35:03;28.10;49.50
7998;DHT22;4044;49.814;7.828;2022-07-01T15:37:30;27.90;48.80
7998;DHT22;4044;49.814;7.828;2022-07-01T15:39:56;27.70;49.00
7998;DHT22;4044;49.814;7.828;2022-07-01T15:42:21;27.40;48.90
7998;DHT22;4044;49.814;7.828;2022-07-01T15:44:47;27.10;51.50
7998;DHT22;4044;49.814;7.828;2022-07-01T15:47:13;27.00;52.90
7998;DHT22;4044;49.814;7.828;2022-07-01T15:49:58;26.80;53.60
7998;DHT22;4044;49.814;7.828;2022-07-01T15:52:23;26.80;52.40
7998;DHT22;4044;49.814;7.828;2022-07-01T15:54:49;26.80;52.60
7998;DHT22;4044;49.814;7.828;2022-07-01T15:57:14;26.80;54.00
7998;DHT22;4044;49.814;7.828;2022-07-01T15:59:40;26.80;57.20
7998;DHT22;4044;49.814;7.828;2022-07-01T16:02:05;26.30;54.20
7998;DHT22;4044;49.814;7.828;2022-07-01T16:04:33;26.40;53.40
7998;DHT22;4044;49.814;7.828;2022-07-01T16:07:03;28.10;53.00
7998;DHT22;4044;49.814;7.828;2022-07-01T16:09:33;28.00;49.10
7998;DHT22;4044;49.814;7.828;2022-07-01T16:12:00;29.80;50.60
7998;DHT22;4044;49.814;7.828;2022-07-01T16:14:26;30.80;45.50
7998;DHT22;4044;49.814;7.828;2022-07-01T16:16:54;31.00;43.60
7998;DHT22;4044;49.814;7.828;2022-07-01T16:19:23;29.90;44.40
7998;DHT22;4044;49.814;7.828;2022-07-01T16:21:48;29.50;44.30
7998;DHT22;4044;49.814;7.828;2022-07-01T16:24:16;29.90;45.20
7998;DHT22;4044;49.814;7.828;2022-07-01T16:26:42;30.80;43.80
7998;DHT22;4044;49.814;7.828;2022-07-01T16:29:08;31.50;42.30
7998;DHT22;4044;49.814;7.828;2022-07-01T16:31:33;32.20;43.70
7998;DHT22;4044;49.814;7.828;2022-07-01T16:34:00;32.70;41.20
7998;DHT22;4044;49.814;7.828;2022-07-01T16:36:31;33.30;42.10
7998;DHT22;4044;49.814;7.828;2022-07-01T16:44:08;31.70;39.90